Aeroporto :







RITROVATECI SU...

 
LOGIN :

Iscrizione | Disclaimer

   EN    FR    IT 

 









Sommario :    VFR   VFR Marginale   IFR   IFR Intensivo   IFR Molto Intensivo
Visibilità : 
Base nubi : 
>= 8 km
>= 3000ft
5 / 8 km
1000 / 3000 ft
1500m / 5 km
500 / 1000 ft
800 / 1500m
200 / 500 ft
< 800m
< 200 ft
Simboli :   Temporali  Nebbia  Neve Forte  Precipitazioni Forti  Vento > 20 kt






- Altitudine del aeroporto : 160 ft
- Codice IATA : YYR


CYYR - Goose Bay

ULTIMO METAR :
  • 281200Z 34019G26KT 5/8SM -SN BLSN VV006 M04/M08 A2953 RMK SN8 /S04/ SLP002

METARs OBSOLETI :
  • 281139Z 33017G30KT 3/4SM -SN BLSN VV007 M04/M08 A2951 RMK SN8 SLP997
  • 281129Z 33019G29KT 1SM -SN BLSN BKN016 OVC025 M04/M08 A2950 RMK SN3SC2SC2 SLP994
  • 281115Z 34023G29KT 1SM -SN BLSN SCT015 OVC025 M04/M08 A2949 RMK SN2SC2SC4 SLP991
  • 281100Z 34022G34KT 1 1/4SM -FZDZ -SN BLSN FEW015 SCT020 OVC035 M04/M08 A2949 RMK SC2SC2SC4 /S03/ SLP989
  • 281011Z 34025G35KT 1 1/2SM -FZDZ -SN BLSN SCT020 OVC035 M04/M08 A2947 RMK SC3SC5 SLP982
  • 280951Z 34023G35KT 1 1/2SM -SN BLSN SCT020 OVC035 M04/M08 A2946 RMK SN1SC2SC5 SLP978

TAF AMD TAF CYYR
Valido dal 28 a 12 ore il 29 a 12 ore UTC


281142Z 2812/2912 34020G35KT 3/4SM -SN -FZDZ BLSN VV006
TEMPO 2812/2815 2SM -SN SCT015 OVC030
BECMG 2813/2815 33015G30KT
FM281500 33015G30KT 2SM -SN SCT010 OVC025
TEMPO 2815/2818 4SM -SN -FZDZ BR
FM281800 30012G22KT 4SM -SN BKN020 OVC040
PROB30 2818/2820 2SM -SN -FZDZ BR
FM282000 30010G20KT P6SM -SHSN OVC030
BECMG 2822/2824 27010KT
FM290400 26006KT P6SM SKC RMK NXT FCST BY 281800Z



MetMap, La meteo Aeronautica in un colpo d'occhio ! - Copyright ORBIFLY Dicembre 2007 - Disclaimer

ORBIFLY MET'MAP TEAM :

Programmazione e sviluppo : Alexandra Zaïnal
Concezione : Baudouin d'Aumeries
Aiuto per la programmazione : Marc-Olivier Méhu
Supporto tecnico e logistico : Manuel Goepfert
Aiuto per la traduzione : Arnaldo La Scala

Contatto : metmap@orbifly.com




FONTI E CREDITI :

   NOAA